createdAt,value
2023-03-28T00:00:12.802Z,51.50
2023-03-28T00:03:20.117Z,50.82
2023-03-28T00:06:26.678Z,50.45
2023-03-28T00:09:30.567Z,49.93
2023-03-28T00:12:34.307Z,50.16
2023-03-28T00:15:42.912Z,49.74
2023-03-28T00:18:46.447Z,49.67
2023-03-28T00:21:52.824Z,49.14
2023-03-28T00:24:59.215Z,48.96
2023-03-28T00:28:03.034Z,49.52
2023-03-28T00:31:08.563Z,49.83
2023-03-28T00:34:12.753Z,49.67
2023-03-28T00:37:18.098Z,49.72
2023-03-28T00:40:23.136Z,49.94
2023-03-28T00:43:38.424Z,49.87
2023-03-28T00:46:43.701Z,49.88
2023-03-28T00:49:50.357Z,50.11
2023-03-28T00:53:04.881Z,49.73
2023-03-28T00:56:11.118Z,49.77
2023-03-28T00:59:19.478Z,49.14
2023-03-28T01:02:24.605Z,48.42
2023-03-28T01:05:32.538Z,47.98
2023-03-28T01:08:38.169Z,48.47
2023-03-28T01:11:44.699Z,48.25
2023-03-28T01:14:50.999Z,48.49
2023-03-28T01:17:56.588Z,47.82
2023-03-28T01:21:43.743Z,48.44
2023-03-28T01:25:38.335Z,47.56
2023-03-28T01:29:07.905Z,47.10
2023-03-28T01:32:57.827Z,46.46
2023-03-28T01:36:33.787Z,46.06
2023-03-28T01:39:52.912Z,45.30
2023-03-28T01:43:11.065Z,44.03
2023-03-28T01:46:37.853Z,44.52
2023-03-28T01:49:41.317Z,43.31
2023-03-28T01:52:55.841Z,43.39
2023-03-28T01:56:51.511Z,42.48
2023-03-28T02:00:16.525Z,42.70
2023-03-28T02:03:45.870Z,42.17
2023-03-28T02:07:10.423Z,41.88
2023-03-28T02:10:35.130Z,42.08
2023-03-28T02:14:14.478Z,41.89
2023-03-28T02:17:35.661Z,41.33
2023-03-28T02:21:12.921Z,41.67
2023-03-28T02:24:27.961Z,41.02
2023-03-28T02:27:51.986Z,40.39
2023-03-28T02:31:14.554Z,40.54
2023-03-28T02:34:18.351Z,39.74
2023-03-28T02:37:52.368Z,40.28
2023-03-28T02:41:15.158Z,39.23
2023-03-28T02:45:08.348Z,39.71
2023-03-28T02:48:22.644Z,39.55
2023-03-28T02:51:36.071Z,39.49
2023-03-28T02:55:04.576Z,39.24
2023-03-28T02:58:32.132Z,39.16
2023-03-28T03:01:38.041Z,39.25
2023-03-28T03:04:42.507Z,39.22
2023-03-28T03:07:48.363Z,38.77
2023-03-28T03:10:54.150Z,38.33
2023-03-28T03:14:01.425Z,38.19
2023-03-28T03:17:07.334Z,38.32
2023-03-28T03:20:14.262Z,38.61
2023-03-28T03:23:20.367Z,37.74
2023-03-28T03:26:24.127Z,38.45
2023-03-28T03:29:38.386Z,37.71
2023-03-28T03:32:48.759Z,37.66
2023-03-28T03:35:53.994Z,37.26
2023-03-28T03:38:57.594Z,37.13
2023-03-28T03:42:01.008Z,37.08
2023-03-28T03:45:08.150Z,36.39
2023-03-28T03:48:11.187Z,35.64
2023-03-28T03:51:15.196Z,35.37
2023-03-28T03:54:22.105Z,35.04
2023-03-28T03:57:25.747Z,33.76
2023-03-28T04:00:35.487Z,33.12
2023-03-28T04:03:38.711Z,33.59
2023-03-28T04:06:42.291Z,33.06
2023-03-28T04:09:45.884Z,32.21
2023-03-28T04:12:50.108Z,31.16
2023-03-28T04:15:53.177Z,30.67
2023-03-28T04:19:06.449Z,31.69
2023-03-28T04:22:13.327Z,29.82
2023-03-28T04:25:25.499Z,29.49
2023-03-28T04:28:29.130Z,29.00
2023-03-28T04:31:41.263Z,29.48
2023-03-28T04:34:46.413Z,29.59
2023-03-28T04:37:54.719Z,30.61
2023-03-28T04:41:00.357Z,29.19
2023-03-28T04:44:25.125Z,29.44
2023-03-28T04:47:41.458Z,29.46
2023-03-28T04:50:53.240Z,29.24
2023-03-28T04:53:56.749Z,28.25
2023-03-28T04:57:15.977Z,29.32
2023-03-28T05:00:23.122Z,29.68
2023-03-28T05:03:39.965Z,28.37
2023-03-28T05:06:43.747Z,28.14
2023-03-28T05:09:50.121Z,28.58
2023-03-28T05:12:53.703Z,27.96
2023-03-28T05:15:59.896Z,28.82
2023-03-28T05:19:27.642Z,29.13
2023-03-28T05:22:41.758Z,29.36
2023-03-28T05:25:50.017Z,28.99
2023-03-28T05:28:54.761Z,29.56
2023-03-28T05:31:58.439Z,28.97
2023-03-28T05:35:10.963Z,27.95
2023-03-28T05:38:14.946Z,28.19
2023-03-28T05:41:21.928Z,28.40
2023-03-28T05:44:25.960Z,28.34
2023-03-28T05:47:57.879Z,28.61
2023-03-28T05:51:01.813Z,28.24
2023-03-28T05:54:06.248Z,28.25
2023-03-28T05:57:09.995Z,27.73
2023-03-28T06:00:15.982Z,27.47
2023-03-28T06:03:23.042Z,27.39
2023-03-28T06:06:28.604Z,26.55
2023-03-28T06:09:42.897Z,26.63
2023-03-28T06:12:48.090Z,27.00
2023-03-28T06:15:52.930Z,27.98
2023-03-28T06:19:17.308Z,27.15
2023-03-28T06:22:31.065Z,27.17
2023-03-28T06:25:41.505Z,26.77
2023-03-28T06:28:45.768Z,26.29
2023-03-28T06:31:56.487Z,26.30
2023-03-28T06:35:00.320Z,25.95
2023-03-28T06:38:04.699Z,25.32
2023-03-28T06:41:08.924Z,25.49
2023-03-28T06:44:13.211Z,23.61
2023-03-28T06:47:35.223Z,24.09
2023-03-28T06:50:39.667Z,24.41
2023-03-28T06:53:46.960Z,23.22
2023-03-28T06:56:52.134Z,22.58
2023-03-28T06:59:56.126Z,22.95
2023-03-28T07:03:12.221Z,23.33
2023-03-28T07:06:16.205Z,22.66
2023-03-28T07:09:20.860Z,23.22
2023-03-28T07:12:36.303Z,23.31
2023-03-28T07:15:40.385Z,22.77
2023-03-28T07:18:44.570Z,23.16
2023-03-28T07:21:54.636Z,23.25
2023-03-28T07:24:59.635Z,24.27
2023-03-28T07:28:03.888Z,23.45
2023-03-28T07:31:10.645Z,23.60
2023-03-28T07:34:17.302Z,22.59
2023-03-28T07:37:21.006Z,21.37
2023-03-28T07:40:49.633Z,19.12
2023-03-28T07:43:53.409Z,21.12
2023-03-28T07:46:57.522Z,22.03
2023-03-28T07:50:00.728Z,21.57
2023-03-28T07:53:04.871Z,20.66
2023-03-28T07:56:12.608Z,20.19
2023-03-28T07:59:51.271Z,19.27
2023-03-28T08:02:54.932Z,19.67
2023-03-28T08:06:03.655Z,19.59
2023-03-28T08:09:10.750Z,20.06
2023-03-28T08:12:17.991Z,19.30
2023-03-28T08:15:23.878Z,19.98
2023-03-28T08:18:27.955Z,19.54
2023-03-28T08:21:36.003Z,18.36
2023-03-28T08:24:41.974Z,18.36
2023-03-28T08:27:52.394Z,19.26
2023-03-28T08:30:56.252Z,19.48
2023-03-28T08:34:00.426Z,19.83
2023-03-28T08:37:10.667Z,20.05
2023-03-28T08:40:19.195Z,20.19
2023-03-28T08:44:14.933Z,20.31
2023-03-28T08:47:27.847Z,20.41
2023-03-28T08:50:36.946Z,20.38
2023-03-28T08:53:44.810Z,19.55
2023-03-28T08:56:53.870Z,19.68
2023-03-28T09:00:00.994Z,19.42
2023-03-28T09:03:16.899Z,19.44
2023-03-28T09:06:33.992Z,19.70
2023-03-28T09:10:04.626Z,19.33
2023-03-28T09:13:33.977Z,19.80
2023-03-28T09:16:55.238Z,20.18
2023-03-28T09:20:21.244Z,19.89
2023-03-28T09:24:09.994Z,20.07
2023-03-28T09:27:41.597Z,19.72
2023-03-28T09:30:49.651Z,20.07
2023-03-28T09:33:56.314Z,20.00
2023-03-28T09:37:28.761Z,20.39
2023-03-28T09:40:34.802Z,20.70
2023-03-28T09:44:15.686Z,20.59
2023-03-28T09:47:22.437Z,20.55
2023-03-28T09:50:35.639Z,20.60
2023-03-28T09:53:45.584Z,21.00
2023-03-28T09:56:49.181Z,21.36
2023-03-28T10:00:22.280Z,21.84
2023-03-28T10:03:57.836Z,22.50
2023-03-28T10:07:43.435Z,23.60
2023-03-28T10:11:25.531Z,24.15
2023-03-28T10:14:53.134Z,25.30
2023-03-28T10:18:22.242Z,26.27
2023-03-28T10:21:48.211Z,26.94
2023-03-28T10:24:57.688Z,27.94
2023-03-28T10:28:01.614Z,28.06
2023-03-28T10:31:06.944Z,28.63
2023-03-28T10:34:27.232Z,29.44
2023-03-28T10:37:49.311Z,29.82
2023-03-28T10:41:19.834Z,30.61
2023-03-28T10:44:38.178Z,31.21
2023-03-28T10:47:50.831Z,31.70
2023-03-28T10:50:56.969Z,32.30
2023-03-28T10:54:11.319Z,32.60
2023-03-28T10:57:49.556Z,32.85
2023-03-28T11:01:10.375Z,32.83
2023-03-28T11:04:53.311Z,33.20
2023-03-28T11:08:29.967Z,33.32
2023-03-28T11:11:53.295Z,33.33
2023-03-28T11:15:23.166Z,33.50
2023-03-28T11:18:47.831Z,33.62
2023-03-28T11:22:08.858Z,33.77
2023-03-28T11:25:21.714Z,33.71
2023-03-28T11:29:09.207Z,33.74
2023-03-28T11:32:26.043Z,34.03
2023-03-28T11:35:33.921Z,34.34
2023-03-28T11:38:45.128Z,34.26
2023-03-28T11:41:50.850Z,34.40
2023-03-28T11:45:51.296Z,34.50
2023-03-28T11:49:17.842Z,34.04
2023-03-28T11:52:28.939Z,34.35
2023-03-28T11:55:37.379Z,34.42
2023-03-28T11:58:56.005Z,34.73
2023-03-28T12:02:12.517Z,34.59
2023-03-28T12:05:23.688Z,34.93
2023-03-28T12:08:34.587Z,35.11
2023-03-28T12:11:46.558Z,35.30
2023-03-28T12:15:01.803Z,34.97
2023-03-28T12:18:41.873Z,35.71
2023-03-28T12:22:09.817Z,35.32
2023-03-28T12:25:23.899Z,36.01
2023-03-28T12:28:40.306Z,35.79
2023-03-28T12:31:49.507Z,36.14
2023-03-28T12:35:05.640Z,36.38
2023-03-28T12:38:46.993Z,36.49
2023-03-28T12:42:05.604Z,36.93
2023-03-28T12:45:15.436Z,37.00
2023-03-28T12:48:53.718Z,37.02
2023-03-28T12:52:06.470Z,37.36
2023-03-28T12:55:26.667Z,37.23
2023-03-28T12:58:37.495Z,37.89
2023-03-28T13:01:57.501Z,37.91
2023-03-28T13:05:52.879Z,37.41
2023-03-28T13:09:20.862Z,37.39
2023-03-28T13:12:51.010Z,37.13
2023-03-28T13:16:23.012Z,36.76
2023-03-28T13:20:08.407Z,36.53
2023-03-28T13:23:15.865Z,37.04
2023-03-28T13:26:20.200Z,37.12
2023-03-28T13:29:44.242Z,37.29
2023-03-28T13:32:51.663Z,37.51
2023-03-28T13:36:01.536Z,37.40
2023-03-28T13:39:24.096Z,37.56
2023-03-28T13:42:31.901Z,37.75
2023-03-28T13:45:38.145Z,38.00
2023-03-28T13:48:53.135Z,37.94
2023-03-28T13:52:22.575Z,38.07
2023-03-28T13:55:28.785Z,38.39
2023-03-28T13:58:32.369Z,38.79
2023-03-28T14:01:47.592Z,38.98
2023-03-28T14:04:57.103Z,39.25
2023-03-28T14:08:25.965Z,39.25
2023-03-28T14:11:34.253Z,39.49
2023-03-28T14:14:43.529Z,40.00
2023-03-28T14:17:47.832Z,39.78
2023-03-28T14:20:51.634Z,39.93
2023-03-28T14:24:05.490Z,40.35
2023-03-28T14:27:14.035Z,40.53
2023-03-28T14:30:23.426Z,40.62
2023-03-28T14:33:32.459Z,40.73
2023-03-28T14:37:17.654Z,40.86
2023-03-28T14:40:35.995Z,40.92
2023-03-28T14:43:40.437Z,41.03
2023-03-28T14:46:44.392Z,41.03
2023-03-28T14:49:49.072Z,40.71
2023-03-28T14:52:52.917Z,40.84
2023-03-28T14:56:10.180Z,40.81
2023-03-28T14:59:19.834Z,41.06
2023-03-28T15:02:31.427Z,40.79
2023-03-28T15:05:37.093Z,40.96
2023-03-28T15:08:41.813Z,41.21
2023-03-28T15:11:46.801Z,41.17
2023-03-28T15:14:51.161Z,41.05
2023-03-28T15:17:57.234Z,41.26
2023-03-28T15:21:04.528Z,41.27
2023-03-28T15:24:16.160Z,41.29
2023-03-28T15:27:33.001Z,41.33
2023-03-28T15:30:41.069Z,40.97
2023-03-28T15:33:48.152Z,41.12
2023-03-28T15:36:59.397Z,41.33
2023-03-28T15:40:19.752Z,41.33
2023-03-28T15:43:42.005Z,41.35
2023-03-28T15:46:47.374Z,41.53
2023-03-28T15:49:55.355Z,41.66
2023-03-28T15:53:08.504Z,41.16
2023-03-28T15:56:24.368Z,41.17
2023-03-28T15:59:41.348Z,41.22
2023-03-28T16:02:45.386Z,41.31
2023-03-28T16:05:57.789Z,41.00
2023-03-28T16:09:18.570Z,41.36
2023-03-28T16:12:23.553Z,41.73
2023-03-28T16:15:53.930Z,41.14
2023-03-28T16:19:22.462Z,40.95
2023-03-28T16:22:26.743Z,41.23
2023-03-28T16:25:30.614Z,41.10
2023-03-28T16:28:34.753Z,41.47
2023-03-28T16:31:38.784Z,41.47
2023-03-28T16:34:43.382Z,40.87
2023-03-28T16:37:48.024Z,41.11
2023-03-28T16:40:51.513Z,41.20
2023-03-28T16:43:55.838Z,41.35
2023-03-28T16:47:00.678Z,41.18
2023-03-28T16:50:04.214Z,41.31
2023-03-28T16:53:07.887Z,41.50
2023-03-28T16:56:15.921Z,41.38
2023-03-28T16:59:21.214Z,41.59
2023-03-28T17:02:25.360Z,41.21
2023-03-28T17:05:29.216Z,41.36
2023-03-28T17:08:32.820Z,41.59
2023-03-28T17:11:36.806Z,41.73
2023-03-28T17:14:40.819Z,41.63
2023-03-28T17:17:44.647Z,41.59
2023-03-28T17:20:58.688Z,41.89
2023-03-28T17:24:02.788Z,41.65
2023-03-28T17:27:06.318Z,41.75
2023-03-28T17:30:10.256Z,41.99
2023-03-28T17:33:14.407Z,42.23
2023-03-28T17:36:28.805Z,42.17
2023-03-28T17:39:33.386Z,42.43
2023-03-28T17:42:37.195Z,42.34
2023-03-28T17:45:40.796Z,42.38
2023-03-28T17:48:44.656Z,42.01
2023-03-28T17:51:47.846Z,42.16
2023-03-28T17:54:51.651Z,41.95
2023-03-28T17:57:55.302Z,42.15
2023-03-28T18:00:59.576Z,42.20
2023-03-28T18:04:03.294Z,42.33
2023-03-28T18:07:27.756Z,41.88
2023-03-28T18:10:35.611Z,42.41
2023-03-28T18:13:39.914Z,42.69
2023-03-28T18:16:45.529Z,42.15
2023-03-28T18:19:49.063Z,42.25
2023-03-28T18:22:52.137Z,42.28
2023-03-28T18:25:55.377Z,42.23
2023-03-28T18:28:59.521Z,42.22
2023-03-28T18:32:02.727Z,42.30
2023-03-28T18:35:07.856Z,42.19
2023-03-28T18:38:13.087Z,42.34
2023-03-28T18:41:17.573Z,42.35
2023-03-28T18:44:20.632Z,42.29
2023-03-28T18:47:24.258Z,42.25
2023-03-28T18:50:27.841Z,42.50
2023-03-28T18:53:32.000Z,42.39
2023-03-28T18:56:35.373Z,42.60
2023-03-28T18:59:41.033Z,42.72
2023-03-28T19:02:44.845Z,42.54
2023-03-28T19:05:48.282Z,42.80
2023-03-28T19:08:52.243Z,42.78
2023-03-28T19:11:56.096Z,42.69
2023-03-28T19:14:59.900Z,42.88
2023-03-28T19:18:05.030Z,43.13
2023-03-28T19:21:09.976Z,43.16
2023-03-28T19:24:13.968Z,43.33
2023-03-28T19:27:17.917Z,43.28
2023-03-28T19:30:22.247Z,43.56
2023-03-28T19:33:25.602Z,43.52
2023-03-28T19:36:29.706Z,43.66
2023-03-28T19:39:33.491Z,43.63
2023-03-28T19:42:37.368Z,43.68
2023-03-28T19:45:44.235Z,43.72
2023-03-28T19:48:48.359Z,43.87
2023-03-28T19:51:54.620Z,44.13
2023-03-28T19:54:57.861Z,44.34
2023-03-28T19:58:02.990Z,44.40
2023-03-28T20:01:07.130Z,44.32
2023-03-28T20:04:12.508Z,44.33
2023-03-28T20:07:20.299Z,44.56
2023-03-28T20:10:23.697Z,44.70
2023-03-28T20:13:27.916Z,44.81
2023-03-28T20:16:32.107Z,44.89
2023-03-28T20:19:36.862Z,45.06
2023-03-28T20:22:40.475Z,45.21
2023-03-28T20:25:43.830Z,45.14
2023-03-28T20:28:50.527Z,45.50
2023-03-28T20:31:55.430Z,45.78
2023-03-28T20:34:58.838Z,45.74
2023-03-28T20:38:03.021Z,46.11
2023-03-28T20:41:11.623Z,46.31
2023-03-28T20:44:20.832Z,46.65
2023-03-28T20:47:25.852Z,46.89
2023-03-28T20:50:40.135Z,47.07
2023-03-28T20:53:50.139Z,46.85
2023-03-28T20:56:54.874Z,47.10
2023-03-28T20:59:58.588Z,46.98
2023-03-28T21:03:04.167Z,46.94
2023-03-28T21:06:08.535Z,46.69
2023-03-28T21:09:18.794Z,46.75
2023-03-28T21:12:23.230Z,46.83
2023-03-28T21:15:28.912Z,46.81
2023-03-28T21:18:32.361Z,46.59
2023-03-28T21:21:37.066Z,46.42
2023-03-28T21:24:40.544Z,46.39
2023-03-28T21:27:44.340Z,46.42
2023-03-28T21:31:00.872Z,46.53
2023-03-28T21:34:05.272Z,46.41
2023-03-28T21:37:09.404Z,46.41
2023-03-28T21:40:13.643Z,46.38
2023-03-28T21:43:17.896Z,46.36
2023-03-28T21:46:22.230Z,46.53
2023-03-28T21:49:25.839Z,46.44
2023-03-28T21:52:29.398Z,46.19
2023-03-28T21:55:33.055Z,46.33
2023-03-28T21:58:36.274Z,46.47
2023-03-28T22:01:40.301Z,46.67
2023-03-28T22:04:44.396Z,46.59
2023-03-28T22:07:47.569Z,46.38
2023-03-28T22:10:54.767Z,46.26
2023-03-28T22:14:03.366Z,46.43
2023-03-28T22:17:08.207Z,46.54
2023-03-28T22:20:13.787Z,46.62
2023-03-28T22:23:17.288Z,46.36
2023-03-28T22:26:21.702Z,46.17
2023-03-28T22:29:25.230Z,46.12
2023-03-28T22:32:28.500Z,46.34
2023-03-28T22:35:34.319Z,46.31
2023-03-28T22:38:37.980Z,46.46
2023-03-28T22:41:45.946Z,46.63
2023-03-28T22:44:49.699Z,46.72
2023-03-28T22:47:53.675Z,46.75
2023-03-28T22:50:58.907Z,47.08
2023-03-28T22:54:03.742Z,46.94
2023-03-28T22:57:07.636Z,47.04
2023-03-28T23:00:13.112Z,46.89
2023-03-28T23:03:17.256Z,46.95
2023-03-28T23:06:21.286Z,47.06
2023-03-28T23:09:27.286Z,47.18
2023-03-28T23:12:31.447Z,47.21
2023-03-28T23:15:35.829Z,47.00
2023-03-28T23:18:39.274Z,46.77
2023-03-28T23:21:43.459Z,46.76
2023-03-28T23:24:52.867Z,46.70
2023-03-28T23:27:56.499Z,46.80
2023-03-28T23:31:00.383Z,46.42
2023-03-28T23:34:04.466Z,46.37
2023-03-28T23:37:08.610Z,46.21
2023-03-28T23:40:16.353Z,46.45
2023-03-28T23:43:19.924Z,46.29
2023-03-28T23:46:23.799Z,46.29
2023-03-28T23:49:27.677Z,46.14
2023-03-28T23:52:31.453Z,46.11
2023-03-28T23:55:35.460Z,45.58
2023-03-28T23:58:39.020Z,45.68
